Aeroporto :
LOGIN :

Iscrizione | Disclaimer

   EN    FR    IT 

 










Sommario :    VFR   VFR Marginale   IFR   IFR Intensivo   IFR Molto Intensivo
Visibilità : 
Base nubi : 
>= 8 km
>= 3000ft
5 / 8 km
1000 / 3000 ft
1500m / 5 km
500 / 1000 ft
800 / 1500m
200 / 500 ft
< 800m
< 200 ft
Simboli :   Temporali  Nebbia  Neve Forte  Precipitazioni Forti  Vento > 20 kt
SIGMETs :   Varie  Temporali  Ghiacco  Turbolenza  Onda orograficha  Ceneri Vulcaniche






- Altitudine del aeroporto : 26 ft
- Codice IATA : BIA


LFKB - Bastia

ULTIMO METAR :
  • 240530Z AUTO VRB01KT 9999 FEW042 08/05 Q1006 TEMPO 4000 SHRA FEW045CB BKN045 BKN070 BECMG 33012KT

METARs OBSOLETI :
  • 240500Z AUTO VRB02KT 9999 FEW056 SCT066 BKN086 07/04 Q1006 TEMPO 4000 SHRA FEW045CB BKN045 BKN070 BECMG 33012KT
  • 240430Z AUTO 22005KT 190V260 9999 FEW047 SCT078 BKN096 07/04 Q1006 TEMPO 4000 SHRA FEW045CB BKN045 BKN070 BECMG 33012KT
  • 240400Z AUTO VRB02KT 9999 FEW042 SCT080 BKN100 08/03 Q1006 TEMPO 4000 SHRA FEW045CB BKN045 BKN070
  • 240330Z AUTO 28008G18KT 220V320 9999 FEW046 BKN078 BKN098 08/03 Q1006 TEMPO 4000 SHRA FEW045CB BKN045 BKN070
  • 240300Z AUTO 23017KT 200V260 9999 FEW038 SCT070 BKN084 08/03 Q1005 TEMPO 4000 SHRA FEW045CB BKN045 BKN070 BECMG 24005KT
  • 240230Z AUTO 24008KT 9999 SCT052 BKN070 BKN084 07/04 Q1006 TEMPO 4000 SHRA FEW045CB BKN045 BKN070
  • 240130Z AUTO 25010KT 210V280 9999 RA BKN042/// BKN050/// BKN060/// //////TCU 07/04 Q1007 TEMPO 4000 SHRA FEW045CB BKN045 BKN070
  • 240100Z AUTO 28006KT 250V310 9999 -RA FEW034/// BKN041/// BKN048/// //////CB 08/04 Q1007 TEMPO 4000 SHRA

TAF TAF LFKB
Valido dal 24 a 03 ore il 25 a 03 ore UTC


240200Z 2403/2503 24005KT 9999 FEW040 BKN050 BKN090 TX15/2413Z TN05/2404Z
TEMPO 2403/2408 4000 SHRA FEW045CB BKN045 BKN070 BKN090
BECMG 2406/2409 33012KT
BECMG 2414/2416 16007KT
ATIS : +33 4 95 59 19 40



MetMap, La meteo Aeronautica in un colpo d'occhio ! - Copyright ORBIFLY Dicembre 2007 - Disclaimer

ORBIFLY MET'MAP TEAM :

Programmazione e sviluppo : Alexandra Zaïnal
Concezione : Baudouin d'Aumeries
Supporto tecnico e logistico : Manuel Goepfert
Aiuto : Marc-Olivier Méhu
Aiuto per la traduzione : Arnaldo La Scala




FONTI E CREDITI :

   NOAA